createdAt,value
2018-04-08T00:00:55.496Z,49.74
2018-04-08T00:02:48.363Z,49.45
2018-04-08T00:03:48.338Z,49.84
2018-04-08T00:05:41.205Z,49.36
2018-04-08T00:06:41.182Z,49.07
2018-04-08T00:08:34.089Z,48.88
2018-04-08T00:09:34.079Z,48.59
2018-04-08T00:11:26.923Z,48.97
2018-04-08T00:12:26.906Z,48.69
2018-04-08T00:14:19.775Z,48.40
2018-04-08T00:15:19.748Z,48.40
2018-04-08T00:17:12.682Z,50.03
2018-04-08T00:18:12.594Z,49.65
2018-04-08T00:20:05.474Z,48.78
2018-04-08T00:21:05.446Z,50.60
2018-04-08T00:22:58.321Z,50.03
2018-04-08T00:23:58.288Z,49.45
2018-04-08T00:25:51.165Z,49.65
2018-04-08T00:26:51.139Z,49.38
2018-04-08T00:28:43.992Z,48.11
2018-04-08T00:29:43.978Z,48.30
2018-04-08T00:31:36.849Z,48.18
2018-04-08T00:32:36.819Z,49.07
2018-04-08T00:34:29.678Z,49.24
2018-04-08T00:35:29.662Z,49.91
2018-04-08T00:37:22.533Z,49.74
2018-04-08T00:38:22.502Z,50.03
2018-04-08T00:40:15.362Z,48.97
2018-04-08T00:41:15.345Z,49.33
2018-04-08T00:43:08.229Z,49.62
2018-04-08T00:44:08.202Z,49.91
2018-04-08T00:46:01.062Z,49.62
2018-04-08T00:47:01.043Z,50.48
2018-04-08T00:48:53.914Z,50.87
2018-04-08T00:49:53.886Z,51.73
2018-04-08T00:51:46.743Z,51.44
2018-04-08T00:52:46.728Z,50.87
2018-04-08T00:54:39.601Z,50.96
2018-04-08T00:55:39.571Z,50.58
2018-04-08T00:57:32.428Z,51.34
2018-04-08T00:58:32.414Z,51.15
2018-04-08T01:00:25.289Z,50.00
2018-04-08T01:01:25.255Z,50.29
2018-04-08T01:03:18.108Z,49.81
2018-04-08T01:04:18.091Z,50.58
2018-04-08T01:06:10.962Z,50.58
2018-04-08T01:07:10.937Z,50.87
2018-04-08T01:09:03.792Z,50.20
2018-04-08T01:10:03.774Z,50.38
2018-04-08T01:11:56.644Z,50.20
2018-04-08T01:12:56.617Z,50.48
2018-04-08T01:14:49.473Z,50.67
2018-04-08T01:15:49.456Z,50.10
2018-04-08T01:17:42.327Z,50.58
2018-04-08T01:18:42.299Z,50.29
2018-04-08T01:20:35.154Z,50.29
2018-04-08T01:21:35.139Z,50.00
2018-04-08T01:23:28.011Z,50.58
2018-04-08T01:24:27.982Z,50.74
2018-04-08T01:26:20.839Z,51.34
2018-04-08T01:27:20.822Z,51.34
2018-04-08T01:29:13.718Z,51.03
2018-04-08T01:30:13.662Z,51.22
2018-04-08T01:32:06.526Z,52.85
2018-04-08T01:33:06.504Z,52.66
2018-04-08T01:34:59.371Z,53.04
2018-04-08T01:35:59.342Z,52.85
2018-04-08T01:37:52.206Z,52.66
2018-04-08T01:38:52.183Z,52.56
2018-04-08T01:40:45.057Z,52.09
2018-04-08T01:41:45.025Z,51.70
2018-04-08T01:43:37.884Z,51.32
2018-04-08T01:44:37.865Z,51.61
2018-04-08T01:46:30.733Z,52.18
2018-04-08T01:47:30.706Z,52.85
2018-04-08T01:49:23.570Z,55.22
2018-04-08T01:50:23.558Z,55.51
2018-04-08T01:52:16.417Z,56.84
2018-04-08T01:53:16.386Z,56.84
2018-04-08T01:55:09.241Z,56.82
2018-04-08T01:56:09.224Z,57.29
2018-04-08T01:58:02.094Z,57.48
2018-04-08T01:59:02.069Z,61.12
2018-04-08T02:00:54.957Z,62.55
2018-04-08T02:01:54.947Z,61.02
2018-04-08T02:03:47.813Z,59.49
2018-04-08T02:04:47.781Z,58.92
2018-04-08T02:06:40.641Z,57.01
2018-04-08T02:07:40.621Z,56.91
2018-04-08T02:09:33.485Z,57.13
2018-04-08T02:10:33.460Z,56.84
2018-04-08T02:12:26.317Z,57.20
2018-04-08T02:13:26.300Z,56.62
2018-04-08T02:15:19.245Z,57.68
2018-04-08T02:16:19.140Z,58.15
2018-04-08T02:18:12.002Z,57.58
2018-04-08T02:19:11.985Z,58.34
2018-04-08T02:21:04.857Z,59.40
2018-04-08T02:22:04.828Z,59.30
2018-04-08T02:23:57.730Z,58.92
2018-04-08T02:24:57.708Z,58.44
2018-04-08T02:26:50.576Z,57.77
2018-04-08T02:27:50.546Z,58.15
2018-04-08T02:29:43.404Z,58.32
2018-04-08T02:30:43.386Z,58.54
2018-04-08T02:32:36.253Z,59.08
2018-04-08T02:33:36.230Z,59.75
2018-04-08T02:35:29.083Z,62.24
2018-04-08T02:36:29.061Z,65.20
2018-04-08T02:38:22.005Z,68.26
2018-04-08T02:39:21.903Z,68.16
2018-04-08T02:41:14.759Z,69.12
2018-04-08T02:42:14.743Z,69.02
2018-04-08T02:44:07.608Z,68.64
2018-04-08T02:45:07.582Z,67.11
2018-04-08T02:47:00.445Z,66.35
2018-04-08T02:48:00.423Z,65.39
2018-04-08T02:49:53.292Z,64.15
2018-04-08T02:50:53.269Z,64.15
2018-04-08T02:52:46.126Z,65.30
2018-04-08T02:53:46.104Z,66.73
2018-04-08T02:55:38.970Z,67.30
2018-04-08T02:56:38.945Z,67.30
2018-04-08T02:58:31.803Z,66.44
2018-04-08T02:59:31.801Z,66.06
2018-04-08T03:01:24.652Z,67.84
2018-04-08T03:02:24.624Z,68.51
2018-04-08T03:04:17.481Z,69.09
2018-04-08T03:05:17.466Z,69.66
2018-04-08T03:07:10.330Z,70.23
2018-04-08T03:08:10.301Z,70.87
2018-04-08T03:10:03.154Z,71.00
2018-04-08T03:11:03.137Z,70.61
2018-04-08T03:12:56.003Z,71.00
2018-04-08T03:13:55.975Z,71.53
2018-04-08T03:15:48.831Z,72.58
2018-04-08T03:16:48.814Z,73.35
2018-04-08T03:18:41.680Z,73.83
2018-04-08T03:19:41.650Z,74.30
2018-04-08T03:21:34.506Z,75.83
2018-04-08T03:22:34.487Z,76.21
2018-04-08T03:24:27.352Z,76.98
2018-04-08T03:25:27.324Z,78.18
2018-04-08T03:27:20.182Z,78.75
2018-04-08T03:28:20.159Z,80.85
2018-04-08T03:30:13.026Z,81.04
2018-04-08T03:31:12.997Z,81.33
2018-04-08T03:33:05.850Z,83.34
2018-04-08T03:34:05.833Z,84.48
2018-04-08T03:35:58.700Z,85.34
2018-04-08T03:36:58.669Z,85.53
2018-04-08T03:38:51.526Z,85.72
2018-04-08T03:39:51.536Z,86.54
2018-04-08T03:41:44.375Z,85.82
2018-04-08T03:42:44.346Z,85.72
2018-04-08T03:44:37.694Z,86.39
2018-04-08T03:45:37.676Z,87.30
2018-04-08T03:47:30.539Z,87.97
2018-04-08T03:48:30.563Z,87.78
2018-04-08T03:50:23.390Z,87.87
2018-04-08T03:51:23.355Z,87.40
2018-04-08T03:53:16.222Z,87.30
2018-04-08T03:54:16.190Z,87.25
2018-04-08T03:56:09.067Z,86.39
2018-04-08T03:57:09.046Z,85.82
2018-04-08T03:59:01.911Z,85.34
2018-04-08T04:00:01.882Z,85.05
2018-04-08T04:01:55.232Z,86.39
2018-04-08T04:02:55.211Z,87.35
2018-04-08T04:04:48.072Z,86.30
2018-04-08T04:05:48.047Z,85.53
2018-04-08T04:07:40.902Z,85.82
2018-04-08T04:08:40.885Z,86.49
2018-04-08T04:10:34.238Z,85.34
2018-04-08T04:11:34.212Z,84.96
2018-04-08T04:13:27.069Z,84.43
2018-04-08T04:14:27.048Z,83.86
2018-04-08T04:16:19.909Z,83.28
2018-04-08T04:17:19.887Z,83.38
2018-04-08T04:19:12.741Z,82.32
2018-04-08T04:20:12.722Z,80.70
2018-04-08T04:22:05.614Z,79.50
2018-04-08T04:23:05.563Z,78.89
2018-04-08T04:24:58.415Z,79.17
2018-04-08T04:25:58.393Z,79.85
2018-04-08T04:27:51.259Z,80.04
2018-04-08T04:28:51.231Z,79.56
2018-04-08T04:30:44.083Z,80.04
2018-04-08T04:31:44.065Z,79.36
2018-04-08T04:33:36.934Z,78.74
2018-04-08T04:34:36.904Z,79.22
2018-04-08T04:36:29.758Z,79.65
2018-04-08T04:37:29.739Z,80.22
2018-04-08T04:39:22.600Z,80.99
2018-04-08T04:40:22.597Z,82.76
2018-04-08T04:42:15.428Z,85.53
2018-04-08T04:43:15.409Z,84.86
2018-04-08T04:45:08.270Z,87.11
2018-04-08T04:46:08.243Z,87.40
2018-04-08T04:48:01.098Z,88.73
2018-04-08T04:49:01.081Z,89.50
2018-04-08T04:50:53.945Z,89.78
2018-04-08T04:51:53.916Z,89.69
2018-04-08T04:53:46.773Z,90.03
2018-04-08T04:54:46.757Z,90.12
2018-04-08T04:56:39.623Z,90.26
2018-04-08T04:57:39.591Z,89.69
2018-04-08T04:59:32.442Z,90.50
2018-04-08T05:00:32.423Z,90.50
2018-04-08T05:02:25.287Z,91.74
2018-04-08T05:03:25.261Z,92.88
2018-04-08T05:05:18.114Z,91.93
2018-04-08T05:06:18.096Z,91.17
2018-04-08T05:08:10.963Z,91.93
2018-04-08T05:09:10.935Z,91.93
2018-04-08T05:11:04.281Z,91.93
2018-04-08T05:12:04.263Z,92.03
2018-04-08T05:13:57.154Z,93.08
2018-04-08T05:14:57.105Z,93.55
2018-04-08T05:16:49.951Z,92.79
2018-04-08T05:17:49.933Z,93.46
2018-04-08T05:19:42.792Z,93.65
2018-04-08T05:20:42.765Z,93.74
2018-04-08T05:22:35.623Z,93.46
2018-04-08T05:23:35.602Z,93.55
2018-04-08T05:25:28.463Z,94.22
2018-04-08T05:26:28.435Z,93.93
2018-04-08T05:28:21.336Z,93.93
2018-04-08T05:29:21.269Z,94.51
2018-04-08T05:31:14.623Z,95.37
2018-04-08T05:32:14.596Z,95.27
2018-04-08T05:34:07.461Z,95.27
2018-04-08T05:35:07.434Z,95.17
2018-04-08T05:37:00.783Z,94.89
2018-04-08T05:38:00.762Z,94.41
2018-04-08T05:39:53.627Z,94.12
2018-04-08T05:40:53.597Z,94.41
2018-04-08T05:42:46.450Z,94.79
2018-04-08T05:43:46.430Z,94.98
2018-04-08T05:45:39.374Z,94.98
2018-04-08T05:46:39.274Z,94.22
2018-04-08T05:48:32.117Z,93.74
2018-04-08T05:49:32.098Z,93.55
2018-04-08T05:51:24.959Z,93.74
2018-04-08T05:52:24.935Z,93.36
2018-04-08T05:54:17.785Z,92.83
2018-04-08T05:55:17.768Z,92.36
2018-04-08T05:57:10.635Z,91.50
2018-04-08T05:58:10.604Z,90.93
2018-04-08T06:00:03.457Z,89.83
2018-04-08T06:01:03.437Z,88.68
2018-04-08T06:02:56.302Z,87.25
2018-04-08T06:03:56.275Z,86.96
2018-04-08T06:05:49.129Z,86.20
2018-04-08T06:06:49.107Z,86.58
2018-04-08T06:08:41.968Z,86.39
2018-04-08T06:09:41.942Z,86.49
2018-04-08T06:11:34.793Z,88.20
2018-04-08T06:12:34.775Z,88.68
2018-04-08T06:14:27.641Z,90.21
2018-04-08T06:15:27.608Z,90.21
2018-04-08T06:17:20.461Z,90.11
2018-04-08T06:18:20.444Z,90.31
2018-04-08T06:20:13.309Z,91.50
2018-04-08T06:21:13.288Z,91.78
2018-04-08T06:23:06.131Z,91.78
2018-04-08T06:24:06.113Z,91.69
2018-04-08T06:25:58.975Z,92.02
2018-04-08T06:26:58.951Z,91.55
2018-04-08T06:28:51.801Z,91.74
2018-04-08T06:29:51.785Z,91.26
2018-04-08T06:31:44.647Z,91.16
2018-04-08T06:32:44.617Z,90.97
2018-04-08T06:34:37.468Z,91.36
2018-04-08T06:35:37.450Z,91.26
2018-04-08T06:37:30.318Z,91.74
2018-04-08T06:38:30.386Z,92.31
2018-04-08T06:40:23.142Z,92.41
2018-04-08T06:41:23.123Z,92.88
2018-04-08T06:43:15.982Z,93.84
2018-04-08T06:44:15.958Z,93.65
2018-04-08T06:46:08.887Z,93.55
2018-04-08T06:47:08.791Z,93.17
2018-04-08T06:49:01.664Z,93.46
2018-04-08T06:50:01.626Z,93.74
2018-04-08T06:51:55.002Z,93.07
2018-04-08T06:52:54.981Z,92.07
2018-04-08T06:54:47.845Z,92.64
2018-04-08T06:55:47.817Z,92.26
2018-04-08T06:57:40.671Z,92.79
2018-04-08T06:58:40.652Z,92.74
2018-04-08T07:00:33.516Z,92.93
2018-04-08T07:01:33.490Z,92.55
2018-04-08T07:03:26.346Z,91.02
2018-04-08T07:04:26.325Z,91.11
2018-04-08T07:06:19.194Z,90.54
2018-04-08T07:07:19.160Z,90.25
2018-04-08T07:09:12.016Z,89.15
2018-04-08T07:10:11.997Z,89.44
2018-04-08T07:12:04.912Z,88.29
2018-04-08T07:13:04.833Z,88.01
2018-04-08T07:14:57.687Z,87.24
2018-04-08T07:15:57.667Z,88.01
2018-04-08T07:17:50.530Z,87.62
2018-04-08T07:18:50.503Z,86.96
2018-04-08T07:20:43.853Z,86.52
2018-04-08T07:21:43.838Z,86.71
2018-04-08T07:23:36.704Z,85.94
2018-04-08T07:24:36.676Z,85.47
2018-04-08T07:26:29.523Z,84.89
2018-04-08T07:27:29.504Z,84.61
2018-04-08T07:29:22.371Z,84.61
2018-04-08T07:30:22.338Z,84.03
2018-04-08T07:32:15.195Z,83.27
2018-04-08T07:33:15.177Z,84.03
2018-04-08T07:35:08.041Z,84.03
2018-04-08T07:36:08.016Z,83.94
2018-04-08T07:38:00.905Z,82.93
2018-04-08T07:39:00.853Z,82.93
2018-04-08T07:40:53.724Z,82.17
2018-04-08T07:41:53.697Z,81.97
2018-04-08T07:43:46.554Z,81.97
2018-04-08T07:44:46.534Z,81.68
2018-04-08T07:46:39.398Z,81.05
2018-04-08T07:47:39.371Z,80.87
2018-04-08T07:49:32.720Z,79.91
2018-04-08T07:50:32.710Z,80.10
2018-04-08T07:52:25.567Z,79.52
2018-04-08T07:53:25.543Z,80.19
2018-04-08T07:55:18.403Z,79.52
2018-04-08T07:56:18.379Z,78.57
2018-04-08T07:58:11.237Z,78.47
2018-04-08T07:59:11.220Z,78.47
2018-04-08T08:01:04.572Z,78.70
2018-04-08T08:02:04.545Z,77.55
2018-04-08T08:03:57.404Z,76.50
2018-04-08T08:04:57.386Z,77.26
2018-04-08T08:06:50.252Z,77.84
2018-04-08T08:07:50.228Z,77.08
2018-04-08T08:09:43.085Z,76.44
2018-04-08T08:10:43.071Z,76.64
2018-04-08T08:12:35.935Z,75.01
2018-04-08T08:13:35.905Z,75.20
2018-04-08T08:15:28.762Z,75.20
2018-04-08T08:16:28.745Z,74.82
2018-04-08T08:18:21.638Z,74.05
2018-04-08T08:19:21.583Z,73.70
2018-04-08T08:21:14.439Z,74.18
2018-04-08T08:22:14.423Z,72.64
2018-04-08T08:24:07.295Z,71.69
2018-04-08T08:25:07.265Z,71.31
2018-04-08T08:27:00.122Z,71.59
2018-04-08T08:28:00.105Z,70.83
2018-04-08T08:29:52.970Z,70.54
2018-04-08T08:30:52.943Z,70.25
2018-04-08T08:32:46.295Z,69.90
2018-04-08T08:33:46.278Z,69.71
2018-04-08T08:35:39.642Z,69.52
2018-04-08T08:36:39.614Z,69.13
2018-04-08T08:38:32.479Z,68.75
2018-04-08T08:39:32.452Z,68.18
2018-04-08T08:41:25.321Z,66.74
2018-04-08T08:42:25.294Z,67.12
2018-04-08T08:44:18.156Z,65.62
2018-04-08T08:45:18.139Z,65.14
2018-04-08T08:47:11.008Z,66.00
2018-04-08T08:48:10.986Z,65.33
2018-04-08T08:50:03.839Z,64.85
2018-04-08T08:51:03.862Z,64.37
2018-04-08T08:52:56.695Z,64.95
2018-04-08T08:53:56.664Z,64.66
2018-04-08T08:55:49.525Z,64.79
2018-04-08T08:56:49.507Z,64.98
2018-04-08T08:58:42.381Z,62.77
2018-04-08T08:59:42.350Z,63.16
2018-04-08T09:01:35.704Z,63.35
2018-04-08T09:02:35.685Z,62.96
2018-04-08T09:04:28.552Z,62.01
2018-04-08T09:05:28.530Z,62.48
2018-04-08T09:07:21.388Z,62.19
2018-04-08T09:08:21.370Z,62.23
2018-04-08T09:10:14.240Z,61.75
2018-04-08T09:11:14.216Z,61.84
2018-04-08T09:13:07.106Z,60.78
2018-04-08T09:14:07.058Z,61.36
2018-04-08T09:15:59.925Z,61.55
2018-04-08T09:16:59.900Z,61.55
2018-04-08T09:18:52.760Z,61.87
2018-04-08T09:19:52.745Z,60.91
2018-04-08T09:21:45.613Z,60.72
2018-04-08T09:22:45.589Z,60.53
2018-04-08T09:24:38.462Z,61.97
2018-04-08T09:25:38.438Z,61.58
2018-04-08T09:27:31.296Z,59.66
2018-04-08T09:28:31.303Z,59.47
2018-04-08T09:30:24.143Z,58.99
2018-04-08T09:31:24.119Z,58.89
2018-04-08T09:33:16.984Z,59.12
2018-04-08T09:34:16.969Z,59.22
2018-04-08T09:36:09.843Z,58.92
2018-04-08T09:37:09.825Z,58.45
2018-04-08T09:39:02.676Z,59.89
2018-04-08T09:40:02.663Z,58.54
2018-04-08T09:41:55.536Z,58.64
2018-04-08T09:42:55.511Z,57.77
2018-04-08T09:44:48.369Z,57.00
2018-04-08T09:45:48.356Z,56.43
2018-04-08T09:47:41.222Z,56.74
2018-04-08T09:48:41.206Z,56.16
2018-04-08T09:50:34.066Z,55.88
2018-04-08T09:51:34.048Z,55.98
2018-04-08T09:53:26.927Z,55.49
2018-04-08T09:54:26.900Z,55.49
2018-04-08T09:56:19.760Z,55.01
2018-04-08T09:57:19.748Z,55.13
2018-04-08T09:59:12.625Z,55.43
2018-04-08T10:00:12.596Z,54.75
2018-04-08T10:02:05.462Z,53.98
2018-04-08T10:03:05.438Z,55.13
2018-04-08T10:04:58.318Z,54.58
2018-04-08T10:05:58.296Z,54.58
2018-04-08T10:07:51.154Z,54.87
2018-04-08T10:08:51.138Z,54.10
2018-04-08T10:10:44.021Z,53.05
2018-04-08T10:11:43.990Z,53.62
2018-04-08T10:13:36.858Z,52.18
2018-04-08T10:14:36.841Z,52.08
2018-04-08T10:16:29.722Z,52.30
2018-04-08T10:17:29.691Z,50.95
2018-04-08T10:19:22.581Z,51.34
2018-04-08T10:20:22.545Z,51.24
2018-04-08T10:22:15.412Z,50.47
2018-04-08T10:23:15.390Z,50.98
2018-04-08T10:25:08.338Z,51.56
2018-04-08T10:26:08.248Z,52.42
2018-04-08T10:28:01.118Z,50.98
2018-04-08T10:29:01.115Z,51.07
2018-04-08T10:30:53.960Z,50.11
2018-04-08T10:31:53.945Z,49.91
2018-04-08T10:33:57.890Z,49.15
2018-04-08T10:34:57.870Z,49.07
2018-04-08T10:36:50.737Z,49.07
2018-04-08T10:37:50.718Z,49.27
2018-04-08T10:39:43.592Z,48.59
2018-04-08T10:40:43.571Z,47.24
2018-04-08T10:42:36.439Z,46.97
2018-04-08T10:43:36.417Z,46.88
2018-04-08T10:45:29.288Z,46.01
2018-04-08T10:46:29.265Z,46.40
2018-04-08T10:48:22.135Z,46.97
2018-04-08T10:49:22.121Z,46.01
2018-04-08T10:51:15.068Z,46.01
2018-04-08T10:52:14.986Z,45.55
2018-04-08T10:54:07.843Z,46.23
2018-04-08T10:55:07.829Z,46.13
2018-04-08T10:57:00.707Z,46.61
2018-04-08T10:58:00.684Z,45.07
2018-04-08T10:59:53.551Z,44.29
2018-04-08T11:00:53.537Z,43.35
2018-04-08T11:02:46.408Z,43.93
2018-04-08T11:03:46.387Z,44.32
2018-04-08T11:05:39.327Z,42.48
2018-04-08T11:06:39.242Z,41.81
2018-04-08T11:08:32.114Z,42.29
2018-04-08T11:09:32.094Z,41.33
2018-04-08T11:11:24.958Z,42.31
2018-04-08T11:12:24.944Z,43.28
2018-04-08T11:14:17.819Z,43.28
2018-04-08T11:15:17.797Z,41.63
2018-04-08T11:17:10.678Z,42.31
2018-04-08T11:18:10.653Z,43.47
2018-04-08T11:20:03.516Z,44.43
2018-04-08T11:21:03.506Z,42.41
2018-04-08T11:22:56.381Z,44.92
2018-04-08T11:23:56.360Z,41.85
2018-04-08T11:25:49.225Z,41.27
2018-04-08T11:26:49.209Z,41.75
2018-04-08T11:28:42.086Z,41.27
2018-04-08T11:29:42.074Z,42.72
2018-04-08T11:31:34.963Z,39.34
2018-04-08T11:32:34.913Z,41.36
2018-04-08T11:34:27.791Z,41.17
2018-04-08T11:35:27.765Z,43.88
2018-04-08T11:37:20.636Z,42.25
2018-04-08T11:38:20.626Z,40.13
2018-04-08T11:40:13.495Z,39.57
2018-04-08T11:41:13.504Z,38.12
2018-04-08T11:43:06.351Z,40.25
2018-04-08T11:44:06.334Z,38.02
2018-04-08T11:45:59.208Z,37.36
2018-04-08T11:46:59.188Z,36.78
2018-04-08T11:48:52.054Z,35.35
2018-04-08T11:49:52.044Z,36.32
2018-04-08T11:51:44.919Z,34.01
2018-04-08T11:52:44.900Z,34.51
2018-04-08T11:54:37.780Z,35.49
2018-04-08T11:55:37.769Z,35.03
2018-04-08T11:57:30.642Z,33.38
2018-04-08T11:58:30.623Z,31.27
2018-04-08T12:00:23.581Z,28.76
2018-04-08T12:01:23.483Z,30.41
2018-04-08T12:03:16.359Z,28.19
2018-04-08T12:04:16.343Z,30.52
2018-04-08T12:06:09.231Z,29.26
2018-04-08T12:07:09.213Z,28.30
2018-04-08T12:09:02.078Z,27.14
2018-04-08T12:10:02.069Z,27.83
2018-04-08T12:11:54.965Z,26.40
2018-04-08T12:12:54.946Z,26.30
2018-04-08T12:14:47.817Z,26.21
2018-04-08T12:15:47.807Z,26.13
2018-04-08T12:17:40.728Z,24.87
2018-04-08T12:18:40.715Z,25.34
2018-04-08T12:20:33.603Z,26.62
2018-04-08T12:21:33.586Z,25.45
2018-04-08T12:23:26.460Z,25.26
2018-04-08T12:24:26.447Z,24.39
2018-04-08T12:26:19.320Z,23.82
2018-04-08T12:27:19.315Z,24.10
2018-04-08T12:29:12.201Z,23.23
2018-04-08T12:30:12.183Z,22.84
2018-04-08T12:32:05.078Z,21.70
2018-04-08T12:33:05.063Z,21.50
2018-04-08T12:34:57.970Z,19.28
2018-04-08T12:35:57.929Z,18.60
2018-04-08T12:37:51.319Z,19.29
